Time;durP1;ratioP1;P1;durP2;ratioP2;P2;SDS_P1;SDS_P2;PMS_P1;PMS_P2;Temp;Humidity;BMP_temperature;BMP_pressure;BME280_temperature;BME280_humidity;BME280_pressure;Samples;Min_cycle;Max_cycle;Signal;HPM_P1;HPM_P2
2022/09/13 00:01:55;;;;;;;51.60;14.05;;;;;;;;;;4971360;28;20031;-61
2022/09/13 00:04:22;;;;;;;64.30;15.18;;;;;;;;;;4972542;28;20031;-59
2022/09/13 00:06:49;;;;;;;46.17;14.30;;;;;;;;;;4973036;28;20041;-58
2022/09/13 00:09:16;;;;;;;58.45;14.05;;;;;;;;;;4972374;28;20105;-61
2022/09/13 00:11:43;;;;;;;53.40;13.95;;;;;;;;;;4972088;28;20041;-60
2022/09/13 00:14:10;;;;;;;52.78;13.90;;;;;;;;;;4972320;28;20074;-59
2022/09/13 00:16:37;;;;;;;57.00;15.05;;;;;;;;;;4970991;28;20029;-58
2022/09/13 00:19:05;;;;;;;46.40;13.60;;;;;;;;;;4970706;28;20041;-59
2022/09/13 00:21:32;;;;;;;54.97;13.90;;;;;;;;;;4969394;28;20107;-59
2022/09/13 00:23:58;;;;;;;53.95;14.38;;;;;;;;;;4969431;28;20126;-60
2022/09/13 00:26:27;;;;;;;53.47;13.48;;;;;;;;;;4972033;28;20537;-58
2022/09/13 00:28:56;;;;;;;47.88;13.45;;;;;;;;;;4970415;28;20485;-56
2022/09/13 00:31:26;;;;;;;47.65;13.85;;;;;;;;;;4973656;28;20420;-56
2022/09/13 00:33:53;;;;;;;45.47;13.20;;;;;;;;;;4974794;28;20046;-56
2022/09/13 00:36:20;;;;;;;53.10;13.85;;;;;;;;;;4975793;28;20354;-58
2022/09/13 00:38:47;;;;;;;52.22;13.50;;;;;;;;;;4975695;28;20038;-58
2022/09/13 00:41:16;;;;;;;53.53;14.18;;;;;;;;;;4957497;28;20028;-57
2022/09/13 00:43:48;;;;;;;59.25;13.18;;;;;;;;;;4975769;28;20023;-52
2022/09/13 00:46:24;;;;;;;53.33;13.60;;;;;;;;;;4976013;28;20022;-57
2022/09/13 00:48:53;;;;;;;50.05;13.63;;;;;;;;;;4976391;28;20101;-58
2022/09/13 00:51:20;;;;;;;58.10;13.00;;;;;;;;;;4976482;28;20030;-57
2022/09/13 00:53:49;;;;;;;53.42;13.23;;;;;;;;;;4974824;28;20038;-55
2022/09/13 00:56:19;;;;;;;57.47;14.68;;;;;;;;;;4976169;28;20031;-57
2022/09/13 00:58:57;;;;;;;67.30;14.43;;;;;;;;;;4974515;28;20030;-58
2022/09/13 01:01:28;;;;;;;58.38;13.65;;;;;;;;;;4975799;28;20101;-58
2022/09/13 01:03:55;;;;;;;59.13;14.07;;;;;;;;;;4975370;28;20049;-57
2022/09/13 01:06:31;;;;;;;53.53;13.18;;;;;;;;;;4967394;28;20054;-58
2022/09/13 01:09:03;;;;;;;73.95;14.25;;;;;;;;;;4968854;28;20031;-59
2022/09/13 01:11:46;;;;;;;60.42;12.75;;;;;;;;;;4968971;28;20042;-58
2022/09/13 01:14:13;;;;;;;62.30;13.88;;;;;;;;;;4975056;28;20089;-57
2022/09/13 01:16:40;;;;;;;63.15;13.85;;;;;;;;;;4957578;28;20444;-58
2022/09/13 01:19:07;;;;;;;65.40;13.40;;;;;;;;;;4975213;28;20022;-57
2022/09/13 01:21:53;;;;;;;58.38;12.90;;;;;;;;;;4975221;28;20481;-56
2022/09/13 01:24:38;;;;;;;73.93;16.00;;;;;;;;;;4972486;28;20026;-57
2022/09/13 01:27:23;;;;;;;79.50;17.45;;;;;;;;;;4974428;28;20038;-58
2022/09/13 01:29:59;;;;;;;80.13;17.67;;;;;;;;;;4974582;28;20038;-56
2022/09/13 01:32:26;;;;;;;100.05;19.35;;;;;;;;;;4974694;28;20050;-57
2022/09/13 01:35:12;;;;;;;80.03;19.30;;;;;;;;;;4974505;28;20069;-61
2022/09/13 01:37:44;;;;;;;78.30;19.02;;;;;;;;;;4974775;28;20030;-58
2022/09/13 01:40:16;;;;;;;103.97;22.98;;;;;;;;;;4973073;28;20058;-57
2022/09/13 01:42:49;;;;;;;116.50;26.30;;;;;;;;;;4973215;28;20393;-58
2022/09/13 01:45:27;;;;;;;99.13;25.35;;;;;;;;;;4974256;28;20198;-62
2022/09/13 01:48:01;;;;;;;97.50;25.92;;;;;;;;;;4974808;28;20375;-58
2022/09/13 01:50:46;;;;;;;114.20;27.13;;;;;;;;;;4974487;28;20092;-58
2022/09/13 01:53:19;;;;;;;101.07;25.95;;;;;;;;;;4956922;28;20437;-58
2022/09/13 01:55:59;;;;;;;103.80;22.98;;;;;;;;;;4974027;28;20050;-56
2022/09/13 01:58:31;;;;;;;94.10;20.65;;;;;;;;;;4973620;28;20118;-58
2022/09/13 02:00:58;;;;;;;;;;;;;;;;;;4957931;28;20087;-55
2022/09/13 02:03:32;;;;;;;96.22;25.35;;;;;;;;;;4961616;28;19918;-56
2022/09/13 02:06:05;;;;;;;97.70;26.40;;;;;;;;;;4958350;28;20078;-53
2022/09/13 02:08:41;;;;;;;93.50;26.58;;;;;;;;;;4976173;28;20038;-53
2022/09/13 02:11:12;;;;;;;101.95;29.95;;;;;;;;;;4975122;28;20023;-56
2022/09/13 02:14:00;;;;;;;97.90;29.05;;;;;;;;;;4975166;28;20033;-58
2022/09/13 02:16:33;;;;;;;102.38;29.98;;;;;;;;;;4983848;23;20057;-62
2022/09/13 02:19:20;;;;;;;103.20;28.35;;;;;;;;;;4963317;28;20420;-63
2022/09/13 02:21:49;;;;;;;103.97;28.92;;;;;;;;;;4966626;28;20424;-62
2022/09/13 02:24:19;;;;;;;87.75;25.45;;;;;;;;;;4971354;28;20027;-63
2022/09/13 02:26:48;;;;;;;91.32;26.85;;;;;;;;;;4966899;28;20041;-62
2022/09/13 02:29:18;;;;;;;80.28;24.42;;;;;;;;;;4962781;28;20480;-61
2022/09/13 02:31:55;;;;;;;85.90;24.95;;;;;;;;;;4965652;28;20045;-63
2022/09/13 02:34:23;;;;;;;81.97;24.38;;;;;;;;;;4954359;28;20071;-62
2022/09/13 02:36:52;;;;;;;70.80;23.20;;;;;;;;;;4966277;28;20082;-63
2022/09/13 02:39:22;;;;;;;66.90;21.80;;;;;;;;;;4962847;28;20511;-63
2022/09/13 02:42:05;;;;;;;76.18;23.60;;;;;;;;;;4964788;28;20047;-63
2022/09/13 02:44:33;;;;;;;70.13;21.73;;;;;;;;;;4956019;28;20476;-63
2022/09/13 02:47:04;;;;;;;66.28;21.58;;;;;;;;;;4963544;28;20035;-62
2022/09/13 02:49:39;;;;;;;69.93;20.58;;;;;;;;;;4965441;28;20043;-63
2022/09/13 02:52:09;;;;;;;54.35;19.48;;;;;;;;;;4961081;28;20034;-62
2022/09/13 02:54:55;;;;;;;53.42;18.58;;;;;;;;;;4970848;28;20035;-61
2022/09/13 02:57:38;;;;;;;61.38;19.75;;;;;;;;;;4975205;28;20393;-61
2022/09/13 03:00:06;;;;;;;64.05;19.60;;;;;;;;;;4975241;28;20034;-61
2022/09/13 03:02:33;;;;;;;63.45;19.02;;;;;;;;;;4975234;28;20026;-61
2022/09/13 03:05:01;;;;;;;55.67;18.10;;;;;;;;;;4975070;28;20031;-61
2022/09/13 03:07:28;;;;;;;52.88;17.42;;;;;;;;;;4973968;28;20035;-62
2022/09/13 03:09:58;;;;;;;49.58;17.73;;;;;;;;;;4975090;28;20074;-61
2022/09/13 03:12:31;;;;;;;53.13;17.58;;;;;;;;;;4974989;28;20023;-61
2022/09/13 03:14:58;;;;;;;55.25;17.60;;;;;;;;;;4974680;28;20043;-61
2022/09/13 03:17:25;;;;;;;51.20;17.17;;;;;;;;;;4974779;28;20027;-61
2022/09/13 03:20:10;;;;;;;59.38;17.13;;;;;;;;;;4974848;28;20500;-61
2022/09/13 03:22:58;;;;;;;48.72;16.23;;;;;;;;;;4973455;28;20039;-64
2022/09/13 03:25:25;;;;;;;45.05;15.77;;;;;;;;;;4974654;28;20040;-64
2022/09/13 03:28:02;;;;;;;48.65;15.90;;;;;;;;;;4974740;28;20030;-64
2022/09/13 03:30:29;;;;;;;41.88;15.48;;;;;;;;;;4974650;28;20030;-64
2022/09/13 03:33:02;;;;;;;46.42;15.35;;;;;;;;;;4974849;28;20433;-63
2022/09/13 03:35:51;;;;;;;44.55;14.27;;;;;;;;;;4974397;28;20477;-63
2022/09/13 03:38:31;;;;;;;46.30;14.75;;;;;;;;;;4973513;28;20069;-61
2022/09/13 03:41:14;;;;;;;41.55;14.65;;;;;;;;;;4957004;28;20399;-61
2022/09/13 03:43:52;;;;;;;41.10;13.60;;;;;;;;;;4974417;28;20023;-61
2022/09/13 03:46:23;;;;;;;35.45;13.68;;;;;;;;;;4974374;28;20037;-61
2022/09/13 03:48:50;;;;;;;45.03;13.70;;;;;;;;;;4974405;28;20046;-61
2022/09/13 03:51:17;;;;;;;40.45;13.52;;;;;;;;;;4974259;28;20497;-61
2022/09/13 03:53:47;;;;;;;37.17;12.30;;;;;;;;;;4974242;28;20026;-61
2022/09/13 03:56:19;;;;;;;32.90;12.45;;;;;;;;;;4972900;28;20026;-64
2022/09/13 03:58:46;;;;;;;38.03;13.05;;;;;;;;;;4974153;28;20033;-63
2022/09/13 04:01:13;;;;;;;32.67;12.90;;;;;;;;;;4974203;28;20117;-63
2022/09/13 04:03:40;;;;;;;37.80;13.63;;;;;;;;;;4974148;28;20019;-64
2022/09/13 04:06:07;;;;;;;33.78;11.75;;;;;;;;;;4973618;28;20034;-63
2022/09/13 04:08:34;;;;;;;28.60;11.48;;;;;;;;;;4973982;28;20064;-64
2022/09/13 04:11:02;;;;;;;35.80;11.80;;;;;;;;;;4974128;28;20035;-63
2022/09/13 04:13:29;;;;;;;31.40;11.45;;;;;;;;;;4972861;28;20507;-62
2022/09/13 04:16:03;;;;;;;27.90;11.30;;;;;;;;;;4973525;28;20051;-62
2022/09/13 04:18:30;;;;;;;34.22;11.57;;;;;;;;;;4973927;28;20106;-61
2022/09/13 04:20:58;;;;;;;29.83;10.90;;;;;;;;;;4973678;28;20046;-61
2022/09/13 04:23:26;;;;;;;23.08;10.05;;;;;;;;;;4974000;28;20102;-61
2022/09/13 04:25:53;;;;;;;35.30;10.52;;;;;;;;;;4973749;28;20612;-61
2022/09/13 04:28:21;;;;;;;28.75;10.55;;;;;;;;;;4956349;28;20030;-61
2022/09/13 04:30:49;;;;;;;30.25;10.57;;;;;;;;;;4973605;28;20037;-63
2022/09/13 04:33:16;;;;;;;26.15;9.85;;;;;;;;;;4973473;28;20035;-61
2022/09/13 04:35:43;;;;;;;29.73;9.85;;;;;;;;;;4973609;28;20044;-61
2022/09/13 04:38:10;;;;;;;26.23;8.75;;;;;;;;;;4973496;28;20106;-61
2022/09/13 04:40:38;;;;;;;27.17;10.10;;;;;;;;;;4973687;28;20383;-61
2022/09/13 04:43:05;;;;;;;25.52;9.23;;;;;;;;;;4973570;28;20118;-63
2022/09/13 04:45:32;;;;;;;32.15;10.60;;;;;;;;;;4973615;28;20039;-64
2022/09/13 04:47:59;;;;;;;24.98;9.30;;;;;;;;;;4972535;28;20026;-64
2022/09/13 04:50:26;;;;;;;25.90;9.63;;;;;;;;;;4954356;29;20059;-62
2022/09/13 04:52:54;;;;;;;23.08;9.07;;;;;;;;;;4952921;29;20031;-61
2022/09/13 04:55:21;;;;;;;21.75;8.52;;;;;;;;;;4954181;29;20050;-61
2022/09/13 04:57:52;;;;;;;22.77;8.73;;;;;;;;;;4954264;29;20034;-61
2022/09/13 05:00:19;;;;;;;23.35;8.80;;;;;;;;;;4954256;29;20030;-61
2022/09/13 05:02:46;;;;;;;28.98;8.68;;;;;;;;;;4954291;29;20034;-62
2022/09/13 05:05:13;;;;;;;23.63;8.50;;;;;;;;;;4970622;28;20023;-63
2022/09/13 05:07:40;;;;;;;19.92;8.07;;;;;;;;;;4973235;28;20436;-63
2022/09/13 05:10:08;;;;;;;21.02;7.82;;;;;;;;;;4973361;28;20027;-63
2022/09/13 05:12:35;;;;;;;20.77;8.07;;;;;;;;;;4973501;28;20034;-64
2022/09/13 05:15:02;;;;;;;18.92;7.38;;;;;;;;;;4973122;28;20468;-63
2022/09/13 05:17:30;;;;;;;20.08;7.78;;;;;;;;;;4975415;28;20489;-63
2022/09/13 05:19:57;;;;;;;20.33;7.93;;;;;;;;;;4975677;28;20069;-61
2022/09/13 05:22:24;;;;;;;17.40;7.43;;;;;;;;;;4976955;28;20073;-61
2022/09/13 05:24:50;;;;;;;18.80;7.80;;;;;;;;;;4976852;28;20037;-61
2022/09/13 05:27:17;;;;;;;19.58;7.30;;;;;;;;;;4976939;28;20046;-61
2022/09/13 05:29:44;;;;;;;18.30;7.20;;;;;;;;;;4976681;28;20078;-61
2022/09/13 05:32:11;;;;;;;15.27;6.65;;;;;;;;;;4976564;28;20117;-61
2022/09/13 05:34:38;;;;;;;18.17;7.60;;;;;;;;;;4976403;28;20532;-61
2022/09/13 05:37:05;;;;;;;15.68;6.90;;;;;;;;;;4975526;28;20033;-62
2022/09/13 05:39:32;;;;;;;15.90;6.82;;;;;;;;;;4976640;28;20579;-61
2022/09/13 05:41:59;;;;;;;16.80;6.30;;;;;;;;;;4976640;28;20039;-61
2022/09/13 05:44:26;;;;;;;15.85;6.43;;;;;;;;;;4959020;28;20434;-61
2022/09/13 05:46:53;;;;;;;14.18;6.43;;;;;;;;;;4976560;28;20027;-61
2022/09/13 05:49:21;;;;;;;16.33;6.82;;;;;;;;;;4976439;28;20038;-61
2022/09/13 05:51:48;;;;;;;16.85;6.55;;;;;;;;;;4975436;28;20042;-61
2022/09/13 05:54:15;;;;;;;10.65;5.47;;;;;;;;;;4976240;28;20033;-62
2022/09/13 05:56:42;;;;;;;18.25;6.60;;;;;;;;;;4976221;28;20046;-61
2022/09/13 05:59:12;;;;;;;12.70;5.72;;;;;;;;;;4976290;28;20109;-62
2022/09/13 06:01:39;;;;;;;14.13;6.13;;;;;;;;;;4973982;28;20110;-64
2022/09/13 06:04:06;;;;;;;13.82;5.90;;;;;;;;;;4976096;28;20133;-63
2022/09/13 06:06:34;;;;;;;13.35;5.07;;;;;;;;;;4976256;28;20488;-63
2022/09/13 06:09:01;;;;;;;12.70;5.43;;;;;;;;;;4974721;28;20035;-61
2022/09/13 06:11:28;;;;;;;11.88;5.25;;;;;;;;;;4976110;28;20034;-61
2022/09/13 06:13:55;;;;;;;15.68;5.50;;;;;;;;;;4976037;28;20504;-61
2022/09/13 06:16:22;;;;;;;12.15;4.88;;;;;;;;;;4975758;28;20133;-62
2022/09/13 06:18:49;;;;;;;11.40;4.93;;;;;;;;;;4975986;28;20026;-61
2022/09/13 06:21:21;;;;;;;13.40;5.70;;;;;;;;;;4975715;28;20027;-62
2022/09/13 06:23:49;;;;;;;13.77;5.20;;;;;;;;;;4975918;28;20086;-61
2022/09/13 06:26:17;;;;;;;13.38;4.82;;;;;;;;;;4974446;28;20039;-64
2022/09/13 06:28:47;;;;;;;12.88;4.93;;;;;;;;;;4975171;28;20034;-63
2022/09/13 06:31:15;;;;;;;11.18;5.03;;;;;;;;;;4975783;28;20026;-64
2022/09/13 06:33:43;;;;;;;10.95;4.68;;;;;;;;;;4975681;28;20027;-64
2022/09/13 06:36:13;;;;;;;13.43;4.93;;;;;;;;;;4975481;28;20035;-63
2022/09/13 06:38:40;;;;;;;10.85;4.82;;;;;;;;;;4975508;28;20031;-64
2022/09/13 06:41:08;;;;;;;12.80;4.80;;;;;;;;;;4975620;28;20023;-63
2022/09/13 06:43:35;;;;;;;9.23;4.45;;;;;;;;;;4974137;28;20035;-61
2022/09/13 06:46:06;;;;;;;12.93;5.25;;;;;;;;;;4975352;28;20022;-61
2022/09/13 06:48:35;;;;;;;10.48;4.35;;;;;;;;;;4975463;28;20421;-61
2022/09/13 06:51:02;;;;;;;10.50;4.35;;;;;;;;;;4975081;28;20039;-61
2022/09/13 06:53:30;;;;;;;11.82;4.95;;;;;;;;;;4975234;28;20488;-61
2022/09/13 06:56:05;;;;;;;14.52;4.53;;;;;;;;;;4975114;28;20034;-61
2022/09/13 06:58:32;;;;;;;10.20;4.07;;;;;;;;;;4975096;28;20030;-62
2022/09/13 07:01:25;;;;;;;9.32;4.00;;;;;;;;;;4973956;28;20035;-62
2022/09/13 07:03:58;;;;;;;9.95;4.55;;;;;;;;;;4956039;28;20492;-61
2022/09/13 07:06:26;;;;;;;9.52;3.58;;;;;;;;;;4975098;28;20039;-61
2022/09/13 07:08:54;;;;;;;8.30;4.00;;;;;;;;;;4974909;28;20058;-61
2022/09/13 07:11:22;;;;;;;11.82;4.40;;;;;;;;;;4974952;28;20049;-61
2022/09/13 07:13:53;;;;;;;10.68;4.53;;;;;;;;;;4974770;28;20031;-61
2022/09/13 07:16:21;;;;;;;10.75;4.07;;;;;;;;;;4971673;28;20082;-62
2022/09/13 07:18:52;;;;;;;8.07;3.58;;;;;;;;;;4974748;28;20435;-61
2022/09/13 07:21:19;;;;;;;9.93;3.80;;;;;;;;;;4974735;28;20085;-61
2022/09/13 07:23:46;;;;;;;7.93;3.83;;;;;;;;;;4974773;28;20031;-61
2022/09/13 07:26:13;;;;;;;7.78;3.67;;;;;;;;;;4974551;28;20034;-62
2022/09/13 07:28:41;;;;;;;7.75;3.83;;;;;;;;;;4974609;28;20041;-62
2022/09/13 07:31:10;;;;;;;8.35;3.85;;;;;;;;;;4973180;28;20455;-64
2022/09/13 07:33:37;;;;;;;8.82;3.78;;;;;;;;;;4974506;28;20035;-63
2022/09/13 07:36:05;;;;;;;7.53;3.30;;;;;;;;;;4974341;28;20444;-63
2022/09/13 07:38:33;;;;;;;7.72;3.72;;;;;;;;;;4974452;28;20101;-63
2022/09/13 07:41:00;;;;;;;9.63;3.58;;;;;;;;;;4973670;28;20058;-63
2022/09/13 07:43:27;;;;;;;8.20;3.40;;;;;;;;;;4974447;28;20027;-63
2022/09/13 07:46:01;;;;;;;8.00;3.13;;;;;;;;;;4974189;28;20034;-63
2022/09/13 07:48:29;;;;;;;10.07;3.53;;;;;;;;;;4974314;28;20054;-63
2022/09/13 07:51:00;;;;;;;6.85;3.15;;;;;;;;;;4973356;28;20035;-63
2022/09/13 07:53:27;;;;;;;6.95;3.35;;;;;;;;;;4974201;28;20080;-63
2022/09/13 07:55:54;;;;;;;7.43;3.30;;;;;;;;;;4974060;28;20058;-64
2022/09/13 07:58:21;;;;;;;6.85;3.20;;;;;;;;;;4974210;28;20058;-63
2022/09/13 08:00:48;;;;;;;9.68;2.97;;;;;;;;;;4974142;28;20034;-63
2022/09/13 08:03:15;;;;;;;6.32;3.17;;;;;;;;;;4974089;28;20085;-64
2022/09/13 08:05:42;;;;;;;10.77;3.35;;;;;;;;;;4972967;28;20469;-62
2022/09/13 08:08:09;;;;;;;7.95;2.90;;;;;;;;;;4974072;28;20037;-61
2022/09/13 08:10:36;;;;;;;7.78;2.95;;;;;;;;;;4973957;28;20030;-61
2022/09/13 08:13:03;;;;;;;7.32;2.72;;;;;;;;;;4973923;28;20042;-61
2022/09/13 08:15:30;;;;;;;4.60;2.47;;;;;;;;;;4973626;28;20078;-62
2022/09/13 08:17:57;;;;;;;6.72;2.78;;;;;;;;;;4973907;28;20102;-62
2022/09/13 08:20:24;;;;;;;7.68;2.92;;;;;;;;;;4973951;28;20058;-61
2022/09/13 08:22:51;;;;;;;4.95;2.63;;;;;;;;;;4973904;28;20022;-61
2022/09/13 08:25:18;;;;;;;6.20;3.08;;;;;;;;;;4973039;28;20027;-61
2022/09/13 08:27:45;;;;;;;7.13;2.80;;;;;;;;;;4956398;28;20516;-61
2022/09/13 08:30:12;;;;;;;5.75;2.78;;;;;;;;;;4973832;28;20037;-62
2022/09/13 08:32:39;;;;;;;5.43;2.70;;;;;;;;;;4973752;28;20549;-62
2022/09/13 08:35:06;;;;;;;7.57;2.65;;;;;;;;;;4973556;28;20031;-61
2022/09/13 08:37:33;;;;;;;5.82;3.13;;;;;;;;;;4973707;28;20077;-61
2022/09/13 08:40:01;;;;;;;4.38;2.53;;;;;;;;;;4972473;28;20026;-63
2022/09/13 08:42:27;;;;;;;6.50;2.40;;;;;;;;;;4973744;28;20023;-63
2022/09/13 08:44:56;;;;;;;6.57;2.40;;;;;;;;;;4973553;28;20019;-63
2022/09/13 08:47:35;;;;;;;6.35;2.35;;;;;;;;;;4973695;28;20023;-63
2022/09/13 08:50:14;;;;;;;5.15;2.30;;;;;;;;;;4973511;28;20468;-63
2022/09/13 08:52:59;;;;;;;6.05;2.58;;;;;;;;;;4975912;28;20392;-63
2022/09/13 08:55:44;;;;;;;6.65;2.50;;;;;;;;;;4958567;28;20425;-62
2022/09/13 08:58:25;;;;;;;5.32;2.50;;;;;;;;;;4962821;28;20035;-62
2022/09/13 09:00:58;;;;;;;5.72;2.55;;;;;;;;;;4958126;29;20024;-62
2022/09/13 09:03:38;;;;;;;4.78;2.20;;;;;;;;;;4958063;29;20401;-62
2022/09/13 09:06:11;;;;;;;6.05;2.50;;;;;;;;;;4957896;29;20389;-62
2022/09/13 09:08:45;;;;;;;4.85;2.25;;;;;;;;;;4957948;29;20050;-61
2022/09/13 09:11:32;;;;;;;5.75;2.60;;;;;;;;;;4962905;28;20130;-62
2022/09/13 09:14:09;;;;;;;5.10;2.17;;;;;;;;;;4963683;28;20042;-62
2022/09/13 09:17:03;;;;;;;4.85;2.30;;;;;;;;;;4976699;28;20042;-63
2022/09/13 09:19:35;;;;;;;4.20;2.08;;;;;;;;;;4975455;28;20097;-64
2022/09/13 09:22:06;;;;;;;4.57;2.00;;;;;;;;;;4977014;28;20027;-64
2022/09/13 09:24:35;;;;;;;3.85;2.10;;;;;;;;;;4976720;28;20039;-63
2022/09/13 09:27:02;;;;;;;5.70;2.15;;;;;;;;;;4974199;28;20384;-62
2022/09/13 09:29:35;;;;;;;3.78;1.83;;;;;;;;;;4977006;28;20497;-62
2022/09/13 09:32:02;;;;;;;5.43;2.08;;;;;;;;;;4976582;28;20057;-64
2022/09/13 09:34:55;;;;;;;3.45;1.85;;;;;;;;;;4976706;28;20086;-64
2022/09/13 09:37:25;;;;;;;6.97;2.45;;;;;;;;;;4940086;28;20039;-62
2022/09/13 09:39:53;;;;;;;6.43;2.70;;;;;;;;;;4976076;28;20073;-63
2022/09/13 09:42:23;;;;;;;12.73;2.78;;;;;;;;;;4976619;28;20058;-62
2022/09/13 09:44:52;;;;;;;14.25;3.10;;;;;;;;;;4975133;28;20034;-61
2022/09/13 09:47:21;;;;;;;11.10;3.08;;;;;;;;;;4976327;28;20045;-62
2022/09/13 09:50:09;;;;;;;13.13;3.40;;;;;;;;;;4976610;28;20361;-63
2022/09/13 09:52:39;;;;;;;20.27;3.67;;;;;;;;;;4975761;28;20035;-63
2022/09/13 09:55:20;;;;;;;15.48;3.63;;;;;;;;;;4974145;28;20043;-62
2022/09/13 09:57:57;;;;;;;17.95;3.80;;;;;;;;;;4976320;28;20030;-62
2022/09/13 10:00:27;;;;;;;18.70;3.78;;;;;;;;;;4976397;28;20038;-62
2022/09/13 10:02:56;;;;;;;15.10;3.33;;;;;;;;;;4974667;28;20034;-62
2022/09/13 10:05:25;;;;;;;18.67;4.20;;;;;;;;;;4975778;28;20031;-63
2022/09/13 10:07:53;;;;;;;17.40;3.72;;;;;;;;;;4974951;28;20405;-62
2022/09/13 10:10:41;;;;;;;26.20;4.15;;;;;;;;;;4963652;28;20042;-63
2022/09/13 10:13:13;;;;;;;20.05;3.65;;;;;;;;;;4971175;28;20389;-62
2022/09/13 10:15:52;;;;;;;17.58;3.70;;;;;;;;;;4956833;28;20134;-62
2022/09/13 10:18:21;;;;;;;11.48;3.60;;;;;;;;;;4972582;28;20053;-62
2022/09/13 10:21:05;;;;;;;15.25;3.22;;;;;;;;;;4976003;28;20113;-62
2022/09/13 10:23:34;;;;;;;22.55;4.20;;;;;;;;;;4974899;28;20035;-62
2022/09/13 10:26:01;;;;;;;13.38;3.30;;;;;;;;;;4970396;28;20045;-63
2022/09/13 10:28:29;;;;;;;16.63;3.58;;;;;;;;;;4974105;28;20026;-62
2022/09/13 10:31:02;;;;;;;14.68;3.60;;;;;;;;;;4974082;28;20023;-62
2022/09/13 10:33:31;;;;;;;13.50;3.22;;;;;;;;;;4964700;28;20070;-63
2022/09/13 10:36:01;;;;;;;16.83;3.47;;;;;;;;;;4968187;28;20426;-62
2022/09/13 10:38:38;;;;;;;13.25;3.85;;;;;;;;;;4974324;28;20023;-62
2022/09/13 10:41:07;;;;;;;14.35;3.53;;;;;;;;;;4972148;28;20472;-62
2022/09/13 10:43:34;;;;;;;16.45;4.20;;;;;;;;;;4965620;28;20114;-63
2022/09/13 10:46:02;;;;;;;16.27;3.33;;;;;;;;;;4962662;28;20086;-62
2022/09/13 10:48:30;;;;;;;15.40;3.42;;;;;;;;;;4958597;28;20062;-62
2022/09/13 10:51:02;;;;;;;20.20;3.70;;;;;;;;;;4975323;28;20034;-62
2022/09/13 10:53:42;;;;;;;16.17;3.53;;;;;;;;;;4975424;28;20090;-62
2022/09/13 10:56:35;;;;;;;19.55;4.25;;;;;;;;;;4975323;28;20027;-61
2022/09/13 10:59:17;;;;;;;17.67;3.35;;;;;;;;;;4972783;28;20085;-63
2022/09/13 11:02:01;;;;;;;14.40;3.67;;;;;;;;;;4975209;28;20040;-63
2022/09/13 11:04:36;;;;;;;18.05;3.08;;;;;;;;;;4975162;28;20058;-63
2022/09/13 11:07:08;;;;;;;16.17;3.35;;;;;;;;;;4973694;28;20045;-63
2022/09/13 11:09:46;;;;;;;15.98;3.75;;;;;;;;;;4975166;28;20023;-63
2022/09/13 11:12:29;;;;;;;19.77;3.33;;;;;;;;;;4975119;28;20037;-63
2022/09/13 11:14:55;;;;;;;;;;;;;;;;;;4957280;28;20078;-60
2022/09/13 11:17:33;;;;;;;31.70;3.92;;;;;;;;;;4974941;28;19914;-62
2022/09/13 11:20:18;;;;;;;32.50;4.80;;;;;;;;;;4957329;28;20552;-64
2022/09/13 11:22:54;;;;;;;28.35;4.45;;;;;;;;;;4971621;28;20097;-61
2022/09/13 11:25:27;;;;;;;28.33;4.25;;;;;;;;;;4974828;28;20031;-64
2022/09/13 11:27:54;;;;;;;196.05;10.77;;;;;;;;;;4974748;28;20057;-58
2022/09/13 11:30:22;;;;;;;95.03;7.63;;;;;;;;;;4974769;28;20097;-58
2022/09/13 11:32:55;;;;;;;52.15;5.70;;;;;;;;;;4974688;28;20038;-61
2022/09/13 11:35:34;;;;;;;116.68;12.05;;;;;;;;;;4974518;28;20077;-59
2022/09/13 11:38:19;;;;;;;166.90;15.68;;;;;;;;;;4969956;28;20031;-60
2022/09/13 11:40:59;;;;;;;82.43;8.35;;;;;;;;;;4965314;28;20460;-60
2022/09/13 11:43:39;;;;;;;44.30;5.13;;;;;;;;;;4965108;28;20504;-61
2022/09/13 11:46:06;;;;;;;45.97;5.72;;;;;;;;;;4965041;28;20050;-58
2022/09/13 11:48:33;;;;;;;72.65;6.53;;;;;;;;;;4963891;28;20023;-59
2022/09/13 11:51:22;;;;;;;201.93;13.65;;;;;;;;;;4958315;28;20031;-59
2022/09/13 11:54:05;;;;;;;120.43;8.88;;;;;;;;;;4972209;28;20054;-58
2022/09/13 11:56:38;;;;;;;70.20;7.55;;;;;;;;;;4974266;28;20522;-59
2022/09/13 11:59:04;;;;;;;;;;;;;;;;;;4974917;28;20042;-59
2022/09/13 12:01:37;;;;;;;64.85;7.20;;;;;;;;;;4974441;28;19910;-58
2022/09/13 12:04:04;;;;;;;169.85;16.67;;;;;;;;;;4974263;28;20031;-58
2022/09/13 12:06:31;;;;;;;85.40;10.85;;;;;;;;;;4974094;28;20026;-59
2022/09/13 12:09:01;;;;;;;94.05;10.55;;;;;;;;;;4972960;28;20038;-58
2022/09/13 12:11:31;;;;;;;72.10;9.57;;;;;;;;;;4974352;28;20026;-57
2022/09/13 12:14:00;;;;;;;59.60;7.88;;;;;;;;;;4974316;28;20026;-58
2022/09/13 12:16:39;;;;;;;59.33;7.05;;;;;;;;;;4974016;28;20042;-58
2022/09/13 12:19:32;;;;;;;60.45;7.45;;;;;;;;;;4974208;28;20027;-56
2022/09/13 12:22:01;;;;;;;56.63;6.82;;;;;;;;;;4951806;28;20034;-59
2022/09/13 12:24:31;;;;;;;51.85;6.00;;;;;;;;;;4974022;28;20023;-58
2022/09/13 12:27:04;;;;;;;37.22;5.93;;;;;;;;;;4971815;28;20129;-53
2022/09/13 12:29:31;;;;;;;28.20;4.40;;;;;;;;;;4973771;28;20481;-53
2022/09/13 12:32:00;;;;;;;38.90;5.47;;;;;;;;;;4973819;28;20045;-55
2022/09/13 12:34:31;;;;;;;29.88;4.90;;;;;;;;;;4973699;28;20030;-56
2022/09/13 12:37:16;;;;;;;36.35;5.03;;;;;;;;;;4973744;28;20038;-52
2022/09/13 12:39:49;;;;;;;29.77;4.80;;;;;;;;;;4965179;28;20032;-60
2022/09/13 12:42:27;;;;;;;32.45;3.72;;;;;;;;;;4970166;28;20852;-60
2022/09/13 12:44:54;;;;;;;38.25;4.22;;;;;;;;;;4964318;28;20404;-60
2022/09/13 12:47:33;;;;;;;35.10;4.85;;;;;;;;;;4973570;28;20031;-59
2022/09/13 12:49:59;;;;;;;36.38;4.80;;;;;;;;;;4973361;28;20023;-60
2022/09/13 12:52:45;;;;;;;31.77;3.80;;;;;;;;;;4973572;28;20039;-52
2022/09/13 12:55:24;;;;;;;34.78;4.72;;;;;;;;;;4970945;28;20035;-56
2022/09/13 12:58:03;;;;;;;27.02;3.25;;;;;;;;;;4973477;28;20066;-58
2022/09/13 13:00:34;;;;;;;21.50;3.38;;;;;;;;;;4973425;28;20023;-60
2022/09/13 13:03:09;;;;;;;21.02;3.25;;;;;;;;;;4970769;28;20033;-52
2022/09/13 13:05:38;;;;;;;29.50;3.60;;;;;;;;;;4972724;28;20121;-53
2022/09/13 13:08:08;;;;;;;32.03;3.78;;;;;;;;;;4973373;28;20061;-56
2022/09/13 13:10:38;;;;;;;27.77;3.55;;;;;;;;;;4973417;28;20042;-59
2022/09/13 13:13:11;;;;;;;25.85;3.60;;;;;;;;;;4973388;28;20027;-53
2022/09/13 13:15:38;;;;;;;15.70;2.80;;;;;;;;;;4972966;28;20564;-55
2022/09/13 13:18:37;;;;;;;19.25;3.42;;;;;;;;;;4973300;28;20105;-57
2022/09/13 13:21:06;;;;;;;25.85;3.65;;;;;;;;;;4951207;28;20045;-56
2022/09/13 13:23:37;;;;;;;15.30;2.70;;;;;;;;;;4973403;28;20025;-60
2022/09/13 13:26:08;;;;;;;19.70;3.30;;;;;;;;;;4973378;28;20122;-59
2022/09/13 13:28:44;;;;;;;18.60;2.72;;;;;;;;;;4973202;28;20459;-58
2022/09/13 13:31:29;;;;;;;24.63;3.08;;;;;;;;;;4970125;28;20560;-59
2022/09/13 13:34:22;;;;;;;17.73;3.53;;;;;;;;;;4973080;28;20039;-61
2022/09/13 13:36:51;;;;;;;;;;;;;;;;;;4973172;28;20126;-60
2022/09/13 13:39:24;;;;;;;19.40;3.05;;;;;;;;;;4974847;28;20303;-59
2022/09/13 13:41:54;;;;;;;14.65;2.70;;;;;;;;;;4976646;28;20041;-48
2022/09/13 13:44:21;;;;;;;26.27;3.50;;;;;;;;;;4976565;28;20523;-59
2022/09/13 13:46:49;;;;;;;34.47;3.03;;;;;;;;;;4976469;28;20106;-53
2022/09/13 13:49:34;;;;;;;33.38;3.80;;;;;;;;;;4976234;28;20038;-57
2022/09/13 13:52:07;;;;;;;19.80;2.40;;;;;;;;;;4976446;28;20436;-58
2022/09/13 13:54:52;;;;;;;44.72;5.07;;;;;;;;;;4975058;28;20034;-55
2022/09/13 13:57:28;;;;;;;32.85;4.15;;;;;;;;;;4958176;28;20493;-59
2022/09/13 14:00:14;;;;;;;35.92;4.38;;;;;;;;;;4975982;28;20031;-60
2022/09/13 14:02:52;;;;;;;30.50;3.42;;;;;;;;;;4968605;28;20515;-60
2022/09/13 14:05:37;;;;;;;27.55;3.08;;;;;;;;;;4976119;28;20484;-58
2022/09/13 14:08:07;;;;;;;23.00;2.47;;;;;;;;;;4975790;28;20029;-59
2022/09/13 14:10:45;;;;;;;22.42;2.42;;;;;;;;;;4972549;28;20426;-61
2022/09/13 14:13:30;;;;;;;17.55;2.45;;;;;;;;;;4973810;28;20027;-61
2022/09/13 14:16:00;;;;;;;25.92;3.17;;;;;;;;;;4963020;28;20392;-59
2022/09/13 14:18:27;;;;;;;18.38;2.60;;;;;;;;;;4975497;28;20026;-61
2022/09/13 14:20:58;;;;;;;25.23;2.97;;;;;;;;;;4975832;28;20481;-54
2022/09/13 14:23:25;;;;;;;21.73;3.00;;;;;;;;;;4961585;28;20073;-58
2022/09/13 14:25:57;;;;;;;15.35;2.25;;;;;;;;;;4963661;28;20035;-56
2022/09/13 14:28:24;;;;;;;12.57;2.57;;;;;;;;;;4974554;28;20034;-59
2022/09/13 14:30:56;;;;;;;11.63;2.30;;;;;;;;;;4975479;28;20041;-61
2022/09/13 14:33:33;;;;;;;19.73;2.27;;;;;;;;;;4971373;28;20059;-61
2022/09/13 14:36:02;;;;;;;13.10;2.30;;;;;;;;;;4967503;28;20070;-58
2022/09/13 14:38:34;;;;;;;13.52;2.13;;;;;;;;;;4971225;28;20121;-59
2022/09/13 14:41:21;;;;;;;18.13;2.55;;;;;;;;;;4956446;28;20102;-56
2022/09/13 14:43:49;;;;;;;31.50;3.53;;;;;;;;;;4963430;28;20370;-60
2022/09/13 14:46:22;;;;;;;33.22;3.55;;;;;;;;;;4975114;28;20022;-59
2022/09/13 14:48:54;;;;;;;19.00;2.53;;;;;;;;;;4974846;28;20449;-59
2022/09/13 14:51:24;;;;;;;42.08;3.67;;;;;;;;;;4952734;29;20019;-61
2022/09/13 14:53:53;;;;;;;27.40;2.78;;;;;;;;;;4967561;28;20459;-60
2022/09/13 14:56:28;;;;;;;28.55;3.83;;;;;;;;;;4961593;28;20481;-59